Time;durP1;ratioP1;P1;durP2;ratioP2;P2;SDS_P1;SDS_P2;PMS_P1;PMS_P2;Temp;Humidity;BMP_temperature;BMP_pressure;BME280_temperature;BME280_humidity;BME280_pressure;Samples;Min_cycle;Max_cycle;Signal;HPM_P1;HPM_P2
2022/08/01 00:00:08;;;;;;;;;;;27.20;63.00;27.20;99662.00;;;;335937;28;94012;-87
2022/08/01 00:00:20;;;;;;;;;;;27.20;63.00;27.10;99655.00;;;;332810;29;83491;-87
2022/08/01 00:00:32;;;;;;;;;;;27.20;63.00;27.10;99660.00;;;;333494;29;94088;-87
2022/08/01 00:00:44;;;;;;;;;;;27.20;63.00;27.00;99659.00;;;;335210;29;82522;-87
2022/08/01 00:00:55;;;;;;;;;;;27.20;63.10;27.00;99653.00;;;;337405;28;93091;-86
2022/08/01 00:01:12;;;;;;;;;;;27.20;63.10;27.10;99658.00;;;;338062;28;83450;-86
2022/08/01 00:01:23;;;;;;;;;;;27.20;62.90;27.10;99652.00;;;;334579;29;94192;-85
2022/08/01 00:01:35;;;;;;;;;;;27.10;63.00;27.00;99658.00;;;;335351;29;83495;-86
2022/08/01 00:01:47;;;;;;;;;;;27.20;63.20;27.00;99658.00;;;;334472;28;96110;-86
2022/08/01 00:01:59;;;;;;;;;;;27.10;63.20;27.00;99660.00;;;;337526;28;82583;-86
2022/08/01 00:02:11;;;;;;;;;;;27.10;63.20;27.10;99661.00;;;;338499;28;95743;-86
2022/08/01 00:02:23;;;;;;;;;;;27.10;63.10;27.10;99654.00;;;;336556;28;82299;-87
2022/08/01 00:02:38;;;;;;;;;;;27.10;63.10;27.10;99652.00;;;;337192;28;97219;-86
2022/08/01 00:02:50;;;;;;;;;;;27.10;63.20;27.10;99659.00;;;;334048;29;83417;-86
2022/08/01 00:03:02;;;;;;;;;;;27.10;63.20;27.10;99656.00;;;;333247;29;96511;-87
2022/08/01 00:03:13;;;;;;;;;;;27.10;63.10;27.10;99655.00;;;;336577;28;83285;-86
2022/08/01 00:03:25;;;;;;;;;;;27.10;63.20;27.20;99653.00;;;;335791;28;96981;-86
2022/08/01 00:03:37;;;;;;;;;;;27.10;63.10;27.00;99657.00;;;;335444;29;83294;-87
2022/08/01 00:03:49;;;;;;;;;;;27.10;63.20;27.10;99654.00;;;;335953;28;94719;-86
2022/08/01 00:04:00;;;;;;;;;;;27.10;63.20;27.10;99656.00;;;;339244;28;83393;-87
2022/08/01 00:04:12;;;;;;;;;;;27.10;63.20;27.10;99660.00;;;;335866;28;96427;-86
2022/08/01 00:04:24;;;;;;;;;;;27.10;63.30;27.20;99654.00;;;;337615;28;82364;-86
2022/08/01 00:04:36;;;;;;;;;;;27.10;63.30;27.10;99660.00;;;;336456;28;94350;-86
2022/08/01 00:04:47;;;;;;;;;;;27.10;63.20;27.10;99655.00;;;;336484;28;83583;-86
2022/08/01 00:04:59;;;;;;;;;;;27.10;63.10;27.10;99654.00;;;;335812;28;93841;-87
2022/08/01 00:05:12;;;;;;;;;;;27.10;63.00;27.10;99657.00;;;;336724;28;83343;-87
2022/08/01 00:05:24;;;;;;;;;;;27.10;63.20;27.10;99659.00;;;;335802;28;93939;-87
2022/08/01 00:05:35;;;;;;;;;;;27.10;63.60;26.90;99663.00;;;;335404;29;82586;-87
2022/08/01 00:05:47;;;;;;;;;;;27.10;63.40;27.00;99661.00;;;;334587;29;95060;-87
2022/08/01 00:05:59;;;;;;;;;;;27.10;63.30;27.00;99658.00;;;;336731;28;83275;-87
2022/08/01 00:06:11;;;;;;;;;;;27.10;63.20;26.90;99654.00;;;;334475;29;97432;-87
2022/08/01 00:06:22;;;;;;;;;;;27.00;63.20;26.90;99664.00;;;;333942;29;83429;-87
2022/08/01 00:06:34;;;;;;;;;;;27.00;63.20;27.00;99657.00;;;;335952;28;94015;-87
2022/08/01 00:06:46;;;;;;;;;;;27.10;63.30;27.00;99667.00;;;;335168;29;82549;-86
2022/08/01 00:06:58;;;;;;;;;;;27.10;63.40;27.00;99658.00;;;;335851;28;97010;-86
2022/08/01 00:07:09;;;;;;;;;;;27.00;63.30;27.00;99659.00;;;;336692;28;83310;-86
2022/08/01 00:07:21;;;;;;;;;;;27.00;63.30;27.10;99664.00;;;;335723;28;96985;-87
2022/08/01 00:07:33;;;;;;;;;;;27.10;63.30;27.10;99661.00;;;;335284;29;82373;-87
2022/08/01 00:07:45;;;;;;;;;;;27.10;63.30;27.10;99656.00;;;;337147;28;96269;-86
2022/08/01 00:07:57;;;;;;;;;;;27.10;63.20;27.10;99655.00;;;;335311;29;83291;-87
2022/08/01 00:08:09;;;;;;;;;;;27.10;63.20;27.10;99660.00;;;;337111;28;96225;-87
2022/08/01 00:08:20;;;;;;;;;;;27.10;63.30;27.10;99656.00;;;;337865;28;83638;-86
2022/08/01 00:08:32;;;;;;;;;;;27.10;63.30;27.10;99656.00;;;;335879;28;94161;-86
2022/08/01 00:08:44;;;;;;;;;;;27.10;63.20;27.10;99658.00;;;;336350;28;83394;-85
2022/08/01 00:08:56;;;;;;;;;;;27.10;63.20;26.90;99660.00;;;;334569;29;96157;-86
2022/08/01 00:09:07;;;;;;;;;;;27.10;63.40;26.90;99663.00;;;;336611;28;82615;-86
2022/08/01 00:09:19;;;;;;;;;;;27.00;63.20;27.00;99656.00;;;;333167;29;95600;-86
2022/08/01 00:09:34;;;;;;;;;;;27.00;63.20;26.90;99663.00;;;;333976;29;83657;-86
2022/08/01 00:09:46;;;;;;;;;;;27.00;63.30;27.00;99653.00;;;;335305;28;96269;-87
2022/08/01 00:09:58;;;;;;;;;;;27.00;63.20;26.90;99654.00;;;;337762;28;82525;-86
2022/08/01 00:10:11;;;;;;;;;;;27.00;63.20;26.90;99663.00;;;;335862;28;93896;-86
2022/08/01 00:10:24;;;;;;;;;;;27.00;63.20;26.90;99657.00;;;;335362;29;82518;-86
2022/08/01 00:10:35;;;;;;;;;;;27.00;63.20;26.90;99661.00;;;;334579;29;94250;-86
2022/08/01 00:10:48;;;;;;;;;;;27.00;63.40;27.00;99659.00;;;;333862;29;83599;-87
2022/08/01 00:11:00;;;;;;;;;;;27.00;63.40;27.00;99659.00;;;;334520;29;95592;-87
2022/08/01 00:11:14;;;;;;;;;;;27.00;63.60;27.10;99654.00;;;;337892;28;83412;-85
2022/08/01 00:11:25;;;;;;;;;;;27.00;63.60;27.00;99659.00;;;;335715;28;97109;-86
2022/08/01 00:11:37;;;;;;;;;;;27.00;63.50;26.90;99657.00;;;;332764;29;83413;-87
2022/08/01 00:11:49;;;;;;;;;;;27.00;63.50;27.00;99658.00;;;;332980;29;96597;-86
2022/08/01 00:12:10;;;;;;;;;;;27.00;63.50;26.90;99658.00;;;;332783;29;83430;-86
2022/08/01 00:12:22;;;;;;;;;;;27.00;63.60;26.90;99655.00;;;;331981;29;93991;-86
2022/08/01 00:12:34;;;;;;;;;;;27.00;63.50;26.90;99654.00;;;;333942;29;83300;-86
2022/08/01 00:12:46;;;;;;;;;;;27.00;63.50;26.90;99654.00;;;;331976;29;93885;-87
2022/08/01 00:12:57;;;;;;;;;;;27.00;63.60;26.90;99661.00;;;;335346;29;82444;-87
2022/08/01 00:13:09;;;;;;;;;;;27.00;63.60;27.00;99661.00;;;;334550;29;95591;-86
2022/08/01 00:13:21;;;;;;;;;;;27.00;63.60;27.00;99659.00;;;;336501;28;83338;-86
2022/08/01 00:13:33;;;;;;;;;;;27.00;63.70;26.90;99658.00;;;;331962;29;94110;-86
2022/08/01 00:13:44;;;;;;;;;;;27.00;63.70;26.80;99653.00;;;;332659;29;83394;-86
2022/08/01 00:13:56;;;;;;;;;;;27.00;63.90;26.80;99654.00;;;;332110;29;93033;-86
2022/08/01 00:14:09;;;;;;;;;;;27.00;63.70;26.90;99651.00;;;;336538;28;82334;-87
2022/08/01 00:14:21;;;;;;;;;;;26.90;63.50;26.90;99659.00;;;;335781;28;95560;-86
2022/08/01 00:14:43;;;;;;;;;;;27.00;63.50;26.90;99660.00;;;;335180;29;83382;-85
2022/08/01 00:14:55;;;;;;;;;;;26.90;63.30;26.90;99654.00;;;;333142;29;93092;-86
2022/08/01 00:15:07;;;;;;;;;;;26.90;63.40;26.80;99663.00;;;;332736;29;82406;-86
2022/08/01 00:15:19;;;;;;;;;;;26.90;63.40;26.90;99659.00;;;;330621;29;96937;-86
2022/08/01 00:15:32;;;;;;;;;;;26.90;63.40;26.80;99655.00;;;;331497;29;83496;-86
2022/08/01 00:15:43;;;;;;;;;;;26.90;63.40;26.70;99659.00;;;;330686;29;96877;-87
2022/08/01 00:16:05;;;;;;;;;;;26.90;63.50;26.60;99657.00;;;;331272;29;83585;-87
2022/08/01 00:16:16;;;;;;;;;;;26.90;63.60;26.70;99655.00;;;;333464;29;96015;-86
2022/08/01 00:16:28;;;;;;;;;;;26.90;63.60;26.80;99654.00;;;;335292;29;83583;-86
2022/08/01 00:16:40;;;;;;;;;;;26.90;63.60;26.90;99653.00;;;;333134;29;96620;-87
2022/08/01 00:16:52;;;;;;;;;;;26.90;63.60;26.90;99659.00;;;;331848;29;83576;-86
2022/08/01 00:17:04;;;;;;;;;;;26.90;63.60;26.80;99659.00;;;;332004;29;94153;-87
2022/08/01 00:17:18;;;;;;;;;;;26.90;63.70;26.90;99662.00;;;;335368;29;82473;-86
2022/08/01 00:17:29;;;;;;;;;;;26.90;63.70;26.90;99661.00;;;;334498;29;93833;-87
2022/08/01 00:17:42;;;;;;;;;;;26.90;63.70;26.90;99659.00;;;;335300;29;82434;-86
2022/08/01 00:17:53;;;;;;;;;;;26.90;63.70;26.90;99655.00;;;;334482;29;97392;-87
2022/08/01 00:18:05;;;;;;;;;;;26.90;63.70;27.00;99653.00;;;;335250;29;83405;-86
2022/08/01 00:18:17;;;;;;;;;;;26.90;63.60;26.80;99657.00;;;;337148;28;96428;-86
2022/08/01 00:18:29;;;;;;;;;;;26.90;63.70;26.80;99658.00;;;;336503;28;83428;-86
2022/08/01 00:18:40;;;;;;;;;;;26.90;63.70;26.70;99651.00;;;;334422;29;94171;-86
2022/08/01 00:18:52;;;;;;;;;;;26.80;63.70;26.70;99658.00;;;;334134;29;83322;-86
2022/08/01 00:19:04;;;;;;;;;;;26.80;63.80;26.70;99653.00;;;;333229;29;96426;-86
2022/08/01 00:19:16;;;;;;;;;;;26.80;63.70;26.80;99658.00;;;;335330;29;83113;-86
2022/08/01 00:19:28;;;;;;;;;;;26.80;63.60;26.70;99658.00;;;;334388;29;97395;-86
2022/08/01 00:19:40;;;;;;;;;;;26.80;63.60;26.80;99656.00;;;;335299;29;82496;-87
2022/08/01 00:19:51;;;;;;;;;;;26.80;63.70;26.90;99660.00;;;;334537;29;97163;-86
2022/08/01 00:20:06;;;;;;;;;;;26.80;63.90;26.90;99650.00;;;;337821;28;83674;-86
2022/08/01 00:20:18;;;;;;;;;;;26.80;63.90;26.90;99659.00;;;;334534;29;95262;-86
2022/08/01 00:20:30;;;;;;;;;;;26.80;63.80;27.00;99661.00;;;;335248;29;83603;-86
2022/08/01 00:20:41;;;;;;;;;;;26.80;63.70;26.90;99659.00;;;;334419;29;94209;-86
2022/08/01 00:20:53;;;;;;;;;;;26.80;63.70;26.80;99661.00;;;;336549;28;83257;-86
2022/08/01 00:21:05;;;;;;;;;;;26.80;63.70;26.80;99653.00;;;;333273;29;96152;-86
2022/08/01 00:21:17;;;;;;;;;;;26.80;64.20;26.80;99652.00;;;;335240;29;83276;-86
2022/08/01 00:21:29;;;;;;;;;;;26.80;63.70;26.80;99656.00;;;;337140;28;94071;-87
2022/08/01 00:21:41;;;;;;;;;;;26.80;63.60;26.80;99660.00;;;;335256;29;83383;-86
2022/08/01 00:22:03;;;;;;;;;;;26.80;63.60;26.80;99660.00;;;;335466;28;97574;-86
2022/08/01 00:22:15;;;;;;;;;;;26.90;63.70;26.80;99653.00;;;;333903;29;83488;-86
2022/08/01 00:22:27;;;;;;;;;;;26.80;63.70;26.80;99667.00;;;;334069;29;95008;-86
2022/08/01 00:22:38;;;;;;;;;;;26.80;63.70;26.80;99659.00;;;;334030;29;83316;-86
2022/08/01 00:22:50;;;;;;;;;;;26.80;63.60;26.70;99653.00;;;;333184;29;93487;-87
2022/08/01 00:23:03;;;;;;;;;;;26.80;63.70;26.70;99658.00;;;;336677;28;83234;-87
2022/08/01 00:23:14;;;;;;;;;;;26.80;63.80;26.60;99658.00;;;;334527;29;97260;-86
2022/08/01 00:23:26;;;;;;;;;;;26.80;63.90;26.60;99663.00;;;;336543;28;83388;-86
2022/08/01 00:23:38;;;;;;;;;;;26.80;63.90;26.70;99659.00;;;;335793;28;96771;-86
2022/08/01 00:23:50;;;;;;;;;;;26.80;63.90;26.70;99662.00;;;;335284;29;83464;-87
2022/08/01 00:24:01;;;;;;;;;;;26.80;63.90;26.70;99664.00;;;;334472;29;97161;-86
2022/08/01 00:24:13;;;;;;;;;;;26.70;63.70;26.70;99661.00;;;;333987;29;82429;-87
2022/08/01 00:24:28;;;;;;;;;;;26.80;63.90;26.60;99654.00;;;;333249;29;94291;-85
2022/08/01 00:24:40;;;;;;;;;;;26.80;64.00;26.70;99659.00;;;;336173;28;83470;-85
2022/08/01 00:24:51;;;;;;;;;;;26.70;63.90;26.70;99660.00;;;;335863;28;94004;-86
2022/08/01 00:25:04;;;;;;;;;;;26.80;64.00;26.70;99651.00;;;;335116;29;82453;-86
2022/08/01 00:25:15;;;;;;;;;;;26.70;63.90;26.60;99654.00;;;;334582;29;96743;-86
2022/08/01 00:25:27;;;;;;;;;;;26.70;64.00;26.60;99658.00;;;;335151;29;83311;-86
2022/08/01 00:25:45;;;;;;;;;;;26.80;64.10;26.60;99655.00;;;;335777;28;96652;-87
2022/08/01 00:25:56;;;;;;;;;;;26.70;64.10;26.50;99657.00;;;;335354;29;83414;-86
2022/08/01 00:26:08;;;;;;;;;;;26.70;64.10;26.60;99657.00;;;;334420;29;94592;-86
2022/08/01 00:26:20;;;;;;;;;;;26.70;64.30;26.60;99658.00;;;;334085;29;83352;-86
2022/08/01 00:26:32;;;;;;;;;;;26.70;64.30;26.50;99656.00;;;;334709;29;92007;-86
2022/08/01 00:26:43;;;;;;;;;;;26.70;64.40;26.70;99656.00;;;;336387;28;82575;-86
2022/08/01 00:26:55;;;;;;;;;;;26.70;64.30;26.80;99664.00;;;;334456;29;96564;-86
2022/08/01 00:27:07;;;;;;;;;;;26.70;64.20;26.80;99657.00;;;;336577;28;83327;-86
2022/08/01 00:27:19;;;;;;;;;;;26.70;64.10;26.80;99656.00;;;;334603;29;94083;-86
2022/08/01 00:27:31;;;;;;;;;;;26.70;64.00;26.90;99656.00;;;;334987;29;83591;-86
2022/08/01 00:27:48;;;;;;;;;;;26.70;63.90;26.90;99657.00;;;;335505;28;95769;-86
2022/08/01 00:28:01;;;;;;;;;;;26.70;63.90;26.70;99657.00;;;;335121;29;83365;-86
2022/08/01 00:28:16;;;;;;;;;;;26.70;63.90;26.70;99656.00;;;;333193;29;97282;-86
2022/08/01 00:28:27;;;;;;;;;;;26.70;64.00;26.70;99650.00;;;;332728;29;82343;-86
2022/08/01 00:28:39;;;;;;;;;;;26.70;63.90;26.60;99648.00;;;;333267;29;93527;-86
2022/08/01 00:28:51;;;;;;;;;;;26.70;63.90;26.60;99658.00;;;;333975;29;82481;-87
2022/08/01 00:29:03;;;;;;;;;;;26.70;63.90;26.60;99652.00;;;;333319;29;93792;-86
2022/08/01 00:29:22;;;;;;;;;;;26.70;63.90;26.60;99655.00;;;;332609;29;83507;-86
2022/08/01 00:29:53;;;;;;;;;;;26.70;63.90;26.50;99655.00;;;;334560;29;96624;-87
2022/08/01 00:30:24;;;;;;;;;;;26.70;64.20;26.50;99652.00;;;;336622;28;83393;-86
2022/08/01 00:30:36;;;;;;;;;;;26.70;64.10;26.40;99657.00;;;;331947;29;96599;-86
2022/08/01 00:30:48;;;;;;;;;;;26.70;64.10;26.40;99651.00;;;;332644;29;83320;-87
2022/08/01 00:31:00;;;;;;;;;;;26.60;64.20;26.40;99650.00;;;;334577;29;94213;-86
2022/08/01 00:31:11;;;;;;;;;;;26.60;64.20;26.40;99653.00;;;;335346;29;83441;-86
2022/08/01 00:31:23;;;;;;;;;;;26.60;64.20;26.40;99652.00;;;;335814;28;93713;-86
2022/08/01 00:31:35;;;;;;;;;;;26.60;64.20;26.40;99651.00;;;;336522;28;83453;-85
2022/08/01 00:31:47;;;;;;;;;;;26.60;64.30;26.40;99663.00;;;;335255;28;93840;-85
2022/08/01 00:31:58;;;;;;;;;;;26.60;64.30;26.50;99660.00;;;;337865;28;83380;-86
2022/08/01 00:32:10;;;;;;;;;;;26.60;64.20;26.40;99659.00;;;;334497;29;97297;-86
2022/08/01 00:32:22;;;;;;;;;;;26.60;64.10;26.40;99661.00;;;;334046;29;83328;-86
2022/08/01 00:32:34;;;;;;;;;;;26.60;64.40;26.60;99656.00;;;;335926;28;94295;-87
2022/08/01 00:32:46;;;;;;;;;;;26.60;64.40;26.60;99661.00;;;;336422;28;83549;-86
2022/08/01 00:32:58;;;;;;;;;;;26.60;64.50;26.70;99651.00;;;;334514;29;97314;-86
2022/08/01 00:33:10;;;;;;;;;;;26.60;64.40;26.60;99656.00;;;;334031;29;83419;-87
2022/08/01 00:33:22;;;;;;;;;;;26.60;64.30;26.60;99665.00;;;;334460;29;96348;-86
2022/08/01 00:33:33;;;;;;;;;;;26.60;64.20;26.50;99654.00;;;;336437;28;83558;-86
2022/08/01 00:33:45;;;;;;;;;;;26.60;64.40;26.50;99661.00;;;;334502;29;94265;-86
2022/08/01 00:33:57;;;;;;;;;;;26.60;64.30;26.40;99657.00;;;;334031;29;83342;-86
2022/08/01 00:34:08;;;;;;;;;;;26.60;64.40;26.60;99662.00;;;;334558;29;93793;-86
2022/08/01 00:34:20;;;;;;;;;;;26.60;64.30;26.60;99659.00;;;;337900;28;83376;-86
2022/08/01 00:34:32;;;;;;;;;;;26.60;64.20;26.60;99651.00;;;;334690;28;95827;-87
2022/08/01 00:34:44;;;;;;;;;;;26.60;64.20;26.60;99665.00;;;;333878;29;82509;-87
2022/08/01 00:34:56;;;;;;;;;;;26.60;64.30;26.70;99656.00;;;;334532;29;97260;-86
2022/08/01 00:35:08;;;;;;;;;;;26.60;64.30;26.70;99657.00;;;;335374;28;83492;-86
2022/08/01 00:35:19;;;;;;;;;;;26.60;64.30;26.70;99659.00;;;;331802;29;96644;-86
2022/08/01 00:35:31;;;;;;;;;;;26.60;64.20;26.70;99661.00;;;;332762;29;82446;-86
2022/08/01 00:35:43;;;;;;;;;;;26.60;64.20;26.60;99655.00;;;;331950;29;94390;-86
2022/08/01 00:35:55;;;;;;;;;;;26.60;64.10;26.60;99652.00;;;;334849;29;82591;-86
2022/08/01 00:36:07;;;;;;;;;;;26.60;64.10;26.60;99658.00;;;;331870;29;93814;-87
2022/08/01 00:36:19;;;;;;;;;;;26.60;64.10;26.60;99650.00;;;;335303;29;83328;-86
2022/08/01 00:36:31;;;;;;;;;;;26.60;64.10;26.60;99659.00;;;;334622;29;94208;-87
2022/08/01 00:36:42;;;;;;;;;;;26.60;64.10;26.70;99653.00;;;;336475;28;83323;-86
2022/08/01 00:36:54;;;;;;;;;;;26.60;64.70;26.70;99652.00;;;;333223;29;94586;-86
2022/08/01 00:37:06;;;;;;;;;;;26.60;64.10;26.70;99653.00;;;;335274;29;83233;-86
2022/08/01 00:37:17;;;;;;;;;;;26.60;64.10;26.70;99662.00;;;;334572;29;93384;-86
2022/08/01 00:37:29;;;;;;;;;;;26.60;64.20;26.60;99652.00;;;;336605;28;82312;-87
2022/08/01 00:37:41;;;;;;;;;;;26.60;64.20;26.60;99663.00;;;;337075;28;97436;-86
2022/08/01 00:37:53;;;;;;;;;;;26.60;64.30;26.70;99655.00;;;;336585;28;83481;-87
2022/08/01 00:38:05;;;;;;;;;;;26.60;64.30;26.70;99662.00;;;;333167;29;94615;-86
2022/08/01 00:38:16;;;;;;;;;;;26.60;64.20;26.70;99651.00;;;;335338;29;83174;-87
2022/08/01 00:38:28;;;;;;;;;;;26.60;64.10;26.70;99651.00;;;;335809;28;97022;-86
2022/08/01 00:38:40;;;;;;;;;;;26.60;64.20;26.70;99658.00;;;;335271;29;83424;-85
2022/08/01 00:38:52;;;;;;;;;;;26.60;64.20;26.70;99659.00;;;;335719;28;97331;-86
2022/08/01 00:39:03;;;;;;;;;;;26.60;64.10;26.60;99655.00;;;;336545;28;83286;-86
2022/08/01 00:39:15;;;;;;;;;;;26.60;64.20;26.70;99661.00;;;;334640;29;93405;-86
2022/08/01 00:39:27;;;;;;;;;;;26.60;64.20;26.60;99658.00;;;;335287;29;82342;-86
2022/08/01 00:39:39;;;;;;;;;;;26.60;64.20;26.50;99652.00;;;;334440;29;96856;-86
2022/08/01 00:39:50;;;;;;;;;;;26.60;64.40;26.60;99656.00;;;;336614;28;83425;-87
2022/08/01 00:40:02;;;;;;;;;;;26.60;64.20;26.50;99652.00;;;;335769;28;96033;-86
2022/08/01 00:40:14;;;;;;;;;;;26.60;64.20;26.60;99657.00;;;;336545;28;83486;-85
2022/08/01 00:40:26;;;;;;;;;;;26.60;64.10;26.70;99656.00;;;;334519;29;97111;-86
2022/08/01 00:40:38;;;;;;;;;;;26.60;64.10;26.70;99657.00;;;;335247;29;83373;-86
2022/08/01 00:40:50;;;;;;;;;;;26.60;64.10;26.70;99654.00;;;;334354;29;97508;-86
2022/08/01 00:41:01;;;;;;;;;;;26.60;64.20;26.70;99651.00;;;;336537;28;83485;-86
2022/08/01 00:41:13;;;;;;;;;;;26.70;64.40;26.70;99658.00;;;;335854;28;95746;-86
2022/08/01 00:41:25;;;;;;;;;;;26.70;64.30;26.70;99653.00;;;;336477;28;83338;-87
2022/08/01 00:41:37;;;;;;;;;;;26.70;64.10;26.70;99648.00;;;;335776;28;96784;-86
2022/08/01 00:41:48;;;;;;;;;;;26.70;64.10;26.60;99654.00;;;;336022;28;82582;-86
2022/08/01 00:42:10;;;;;;;;;;;26.70;64.40;26.60;99654.00;;;;334400;29;98430;-86
2022/08/01 00:42:22;;;;;;;;;;;26.60;64.20;26.50;99651.00;;;;333958;29;83404;-86
2022/08/01 00:42:34;;;;;;;;;;;26.60;64.10;26.60;99654.00;;;;333220;29;96724;-86
2022/08/01 00:42:52;;;;;;;;;;;26.60;64.00;26.60;99653.00;;;;335137;29;83355;-86
2022/08/01 00:43:03;;;;;;;;;;;26.60;64.10;26.70;99649.00;;;;333211;29;94547;-86
2022/08/01 00:43:15;;;;;;;;;;;26.60;64.20;26.70;99658.00;;;;336647;28;83110;-86
2022/08/01 00:43:28;;;;;;;;;;;26.60;64.20;26.60;99653.00;;;;334472;29;95373;-86
2022/08/01 00:43:39;;;;;;;;;;;26.60;64.10;26.70;99655.00;;;;335225;29;83314;-86
2022/08/01 00:43:51;;;;;;;;;;;26.60;64.10;26.60;99652.00;;;;334487;29;97196;-86
2022/08/01 00:44:06;;;;;;;;;;;26.60;64.20;26.60;99654.00;;;;332671;29;82563;-86
2022/08/01 00:44:18;;;;;;;;;;;26.60;64.20;26.70;99652.00;;;;333257;29;95033;-86
2022/08/01 00:44:29;;;;;;;;;;;26.60;64.20;26.60;99650.00;;;;334041;29;83496;-85
2022/08/01 00:44:41;;;;;;;;;;;26.60;64.30;26.60;99648.00;;;;334241;29;94527;-85
2022/08/01 00:44:53;;;;;;;;;;;26.60;64.50;26.60;99654.00;;;;333935;29;83293;-87
2022/08/01 00:45:05;;;;;;;;;;;26.60;64.40;26.60;99655.00;;;;333029;29;94157;-86
2022/08/01 00:45:17;;;;;;;;;;;26.60;64.30;26.60;99656.00;;;;331480;29;82294;-86
2022/08/01 00:45:29;;;;;;;;;;;26.60;64.30;26.60;99656.00;;;;332009;29;93127;-86
2022/08/01 00:45:41;;;;;;;;;;;26.60;64.20;26.70;99654.00;;;;332693;29;83226;-86
2022/08/01 00:45:52;;;;;;;;;;;26.60;64.30;26.70;99648.00;;;;331860;29;97506;-86
2022/08/01 00:46:04;;;;;;;;;;;26.60;64.30;26.70;99652.00;;;;333882;29;83197;-86
2022/08/01 00:46:16;;;;;;;;;;;26.60;64.40;26.70;99648.00;;;;333200;29;95784;-86
2022/08/01 00:46:28;;;;;;;;;;;26.60;64.30;26.60;99642.00;;;;335308;29;83382;-86
2022/08/01 00:46:39;;;;;;;;;;;26.60;64.50;26.50;99650.00;;;;335692;28;96543;-86
2022/08/01 00:46:51;;;;;;;;;;;26.60;64.40;26.60;99651.00;;;;336471;28;83307;-86
2022/08/01 00:47:03;;;;;;;;;;;26.60;64.20;26.70;99648.00;;;;335774;28;95877;-86
2022/08/01 00:47:15;;;;;;;;;;;26.60;64.30;26.70;99645.00;;;;336573;28;83171;-86
2022/08/01 00:47:26;;;;;;;;;;;26.60;64.30;26.60;99646.00;;;;334425;29;96818;-86
2022/08/01 00:47:38;;;;;;;;;;;26.60;64.40;26.60;99648.00;;;;334024;29;83228;-87
2022/08/01 00:47:50;;;;;;;;;;;26.60;64.40;26.50;99648.00;;;;335760;28;97413;-86
2022/08/01 00:48:06;;;;;;;;;;;26.60;64.40;26.50;99648.00;;;;335308;29;83453;-86
2022/08/01 00:48:17;;;;;;;;;;;26.60;64.40;26.50;99656.00;;;;334456;29;98197;-86
2022/08/01 00:48:29;;;;;;;;;;;26.60;64.30;26.60;99656.00;;;;335290;29;83153;-87
2022/08/01 00:48:41;;;;;;;;;;;26.60;64.30;26.50;99651.00;;;;334404;29;94328;-86
2022/08/01 00:48:54;;;;;;;;;;;26.50;64.30;26.50;99650.00;;;;335314;29;83325;-86
2022/08/01 00:49:06;;;;;;;;;;;26.60;64.40;26.40;99643.00;;;;334610;29;94026;-86
2022/08/01 00:49:21;;;;;;;;;;;26.50;64.40;26.50;99649.00;;;;335188;29;82421;-86
2022/08/01 00:49:33;;;;;;;;;;;26.60;64.60;26.60;99646.00;;;;334523;29;94820;-86
2022/08/01 00:49:45;;;;;;;;;;;26.50;64.50;26.50;99654.00;;;;336513;28;83457;-86
2022/08/01 00:49:57;;;;;;;;;;;26.50;64.50;26.60;99650.00;;;;335869;28;92675;-86
2022/08/01 00:50:09;;;;;;;;;;;26.50;64.40;26.60;99652.00;;;;335172;29;83564;-86
2022/08/01 00:50:21;;;;;;;;;;;26.60;64.40;26.60;99646.00;;;;334527;29;94200;-86
2022/08/01 00:50:33;;;;;;;;;;;26.50;64.60;26.60;99647.00;;;;336684;28;83286;-86
2022/08/01 00:50:44;;;;;;;;;;;26.60;64.70;26.60;99643.00;;;;335705;28;93702;-86
2022/08/01 00:50:56;;;;;;;;;;;26.60;64.50;26.60;99647.00;;;;335314;29;83358;-86
2022/08/01 00:51:08;;;;;;;;;;;26.60;64.50;26.60;99643.00;;;;331919;29;97338;-86
2022/08/01 00:51:20;;;;;;;;;;;26.60;64.50;26.60;99644.00;;;;335274;29;83198;-87
2022/08/01 00:51:33;;;;;;;;;;;26.60;64.40;26.60;99639.00;;;;334653;29;93470;-86
2022/08/01 00:51:45;;;;;;;;;;;26.60;64.40;26.60;99642.00;;;;332415;29;83193;-85
2022/08/01 00:51:58;;;;;;;;;;;26.60;64.40;26.50;99642.00;;;;334254;29;94486;-86
2022/08/01 00:52:09;;;;;;;;;;;26.60;64.40;26.60;99649.00;;;;335281;29;83595;-86
2022/08/01 00:52:21;;;;;;;;;;;26.60;64.40;26.70;99650.00;;;;334961;28;94485;-86
2022/08/01 00:52:33;;;;;;;;;;;26.60;64.30;26.60;99649.00;;;;337990;28;83280;-86
2022/08/01 00:52:45;;;;;;;;;;;26.60;64.40;26.70;99649.00;;;;333108;29;94125;-86
2022/08/01 00:53:02;;;;;;;;;;;26.60;64.30;26.60;99650.00;;;;332703;29;83568;-87
2022/08/01 00:53:14;;;;;;;;;;;26.60;64.50;26.60;99645.00;;;;331975;29;94723;-86
2022/08/01 00:53:29;;;;;;;;;;;26.60;64.40;26.60;99650.00;;;;333927;29;83483;-86
2022/08/01 00:54:01;;;;;;;;;;;26.60;64.50;26.50;99654.00;;;;333195;29;95554;-86
2022/08/01 00:54:16;;;;;;;;;;;26.60;64.80;26.60;99647.00;;;;335312;29;83329;-86
2022/08/01 00:54:28;;;;;;;;;;;26.60;64.60;26.60;99647.00;;;;333942;29;93101;-85
2022/08/01 00:54:39;;;;;;;;;;;26.60;64.40;26.70;99645.00;;;;334871;29;83448;-87
2022/08/01 00:54:51;;;;;;;;;;;26.60;64.50;26.70;99643.00;;;;333178;29;94823;-86
2022/08/01 00:55:03;;;;;;;;;;;26.60;64.40;26.70;99647.00;;;;335119;29;83388;-86
2022/08/01 00:55:15;;;;;;;;;;;26.60;64.40;26.60;99648.00;;;;334606;29;93882;-85
2022/08/01 00:55:27;;;;;;;;;;;26.60;64.40;26.70;99644.00;;;;333873;29;83388;-86
2022/08/01 00:55:39;;;;;;;;;;;26.60;64.40;26.70;99650.00;;;;330613;29;96031;-87
2022/08/01 00:55:51;;;;;;;;;;;26.60;64.30;26.70;99643.00;;;;334079;29;82365;-86
2022/08/01 00:56:03;;;;;;;;;;;26.60;64.40;26.70;99645.00;;;;334454;29;96567;-87
2022/08/01 00:56:14;;;;;;;;;;;26.60;64.30;26.70;99645.00;;;;335271;29;83568;-86
2022/08/01 00:56:26;;;;;;;;;;;26.70;64.30;26.70;99648.00;;;;334636;29;94164;-86
2022/08/01 00:56:38;;;;;;;;;;;26.70;64.30;26.70;99650.00;;;;335355;29;83371;-86
2022/08/01 00:56:50;;;;;;;;;;;26.70;64.20;26.70;99643.00;;;;333091;29;95479;-86
2022/08/01 00:57:02;;;;;;;;;;;26.70;64.40;26.70;99647.00;;;;333936;29;83549;-86
2022/08/01 00:57:13;;;;;;;;;;;26.70;64.40;26.70;99654.00;;;;334491;29;97250;-86
2022/08/01 00:57:25;;;;;;;;;;;26.70;64.40;26.70;99646.00;;;;333965;29;82590;-87
2022/08/01 00:57:58;;;;;;;;;;;26.70;64.30;26.70;99652.00;;;;331920;29;95519;-86
2022/08/01 00:58:17;;;;;;;;;;;26.70;64.20;26.70;99646.00;;;;332815;29;83371;-86
2022/08/01 00:58:30;;;;;;;;;;;26.70;64.40;26.70;99646.00;;;;332086;29;93545;-87
2022/08/01 00:58:45;;;;;;;;;;;26.70;64.40;26.60;99646.00;;;;333848;29;83395;-86
2022/08/01 00:58:57;;;;;;;;;;;26.70;64.30;26.60;99643.00;;;;330722;29;93843;-87
2022/08/01 00:59:09;;;;;;;;;;;26.70;64.20;26.60;99647.00;;;;332785;29;82359;-87
2022/08/01 00:59:22;;;;;;;;;;;26.70;64.20;26.70;99646.00;;;;331987;29;93767;-86
2022/08/01 00:59:33;;;;;;;;;;;26.70;64.10;26.60;99640.00;;;;332805;29;83294;-87
2022/08/01 00:59:45;;;;;;;;;;;26.70;64.20;26.70;99645.00;;;;333295;29;97189;-86
2022/08/01 00:59:58;;;;;;;;;;;26.70;64.20;26.50;99643.00;;;;331480;29;83487;-86
2022/08/01 01:00:11;;;;;;;;;;;26.70;64.30;26.60;99645.00;;;;333221;29;96674;-86
2022/08/01 01:00:23;;;;;;;;;;;26.60;64.20;26.50;99644.00;;;;334065;29;83371;-87
2022/08/01 01:00:38;;;;;;;;;;;26.60;64.40;26.50;99643.00;;;;332087;29;94730;-86
2022/08/01 01:01:04;;;;;;;;;;;26.60;64.40;26.60;99641.00;;;;332745;29;83502;-86
2022/08/01 01:01:20;;;;;;;;;;;26.60;64.30;26.60;99650.00;;;;331922;29;96820;-86
2022/08/01 01:01:33;;;;;;;;;;;26.60;64.40;26.50;99647.00;;;;334066;29;83388;-86
2022/08/01 01:01:50;;;;;;;;;;;26.60;64.70;26.60;99646.00;;;;333315;28;94248;-86
2022/08/01 01:02:02;;;;;;;;;;;26.60;64.50;26.60;99647.00;;;;335198;29;83404;-86
2022/08/01 01:02:25;;;;;;;;;;;26.60;64.40;26.60;99650.00;;;;334456;29;96742;-86
2022/08/01 01:02:36;;;;;;;;;;;26.60;64.50;26.60;99643.00;;;;334096;29;82193;-86
2022/08/01 01:02:48;;;;;;;;;;;26.60;64.50;26.60;99647.00;;;;334344;29;95658;-86